sensor_id;sensor_type;location;lat;lon;timestamp;P1;durP1;ratioP1;P2;durP2;ratioP2
41556;SDS011;27720;51.992;5.890;2022-12-10T00:01:52;40.53;;;16.52;;
41556;SDS011;27720;51.992;5.890;2022-12-10T00:04:18;38.55;;;14.63;;
41556;SDS011;27720;51.992;5.890;2022-12-10T00:06:45;36.25;;;14.57;;
41556;SDS011;27720;51.992;5.890;2022-12-10T00:09:12;36.35;;;14.40;;
41556;SDS011;27720;51.992;5.890;2022-12-10T00:11:40;35.95;;;14.23;;
41556;SDS011;27720;51.992;5.890;2022-12-10T00:14:06;38.60;;;15.63;;
41556;SDS011;27720;51.992;5.890;2022-12-10T00:16:32;34.95;;;15.23;;
41556;SDS011;27720;51.992;5.890;2022-12-10T00:18:59;33.80;;;14.43;;
41556;SDS011;27720;51.992;5.890;2022-12-10T00:21:30;32.28;;;14.80;;
41556;SDS011;27720;51.992;5.890;2022-12-10T00:23:57;28.02;;;12.38;;
41556;SDS011;27720;51.992;5.890;2022-12-10T00:26:24;37.33;;;14.75;;
41556;SDS011;27720;51.992;5.890;2022-12-10T00:28:55;31.85;;;13.05;;
41556;SDS011;27720;51.992;5.890;2022-12-10T00:31:23;38.85;;;15.98;;
41556;SDS011;27720;51.992;5.890;2022-12-10T00:33:54;28.02;;;13.05;;
41556;SDS011;27720;51.992;5.890;2022-12-10T00:36:25;38.20;;;13.88;;
41556;SDS011;27720;51.992;5.890;2022-12-10T00:38:53;34.42;;;14.07;;
41556;SDS011;27720;51.992;5.890;2022-12-10T00:41:19;29.77;;;14.60;;
41556;SDS011;27720;51.992;5.890;2022-12-10T00:43:46;34.25;;;14.32;;
41556;SDS011;27720;51.992;5.890;2022-12-10T00:46:15;32.03;;;14.25;;
41556;SDS011;27720;51.992;5.890;2022-12-10T00:48:42;33.10;;;13.80;;
41556;SDS011;27720;51.992;5.890;2022-12-10T00:51:11;44.55;;;15.85;;
41556;SDS011;27720;51.992;5.890;2022-12-10T00:53:40;35.40;;;14.38;;
41556;SDS011;27720;51.992;5.890;2022-12-10T00:56:08;37.72;;;15.68;;
41556;SDS011;27720;51.992;5.890;2022-12-10T00:58:36;34.75;;;13.20;;
41556;SDS011;27720;51.992;5.890;2022-12-10T01:01:09;32.38;;;13.18;;
41556;SDS011;27720;51.992;5.890;2022-12-10T01:03:37;39.72;;;14.20;;
41556;SDS011;27720;51.992;5.890;2022-12-10T01:06:14;34.28;;;14.65;;
41556;SDS011;27720;51.992;5.890;2022-12-10T01:08:43;40.13;;;15.50;;
41556;SDS011;27720;51.992;5.890;2022-12-10T01:11:10;33.50;;;13.82;;
41556;SDS011;27720;51.992;5.890;2022-12-10T01:13:37;36.85;;;14.98;;
41556;SDS011;27720;51.992;5.890;2022-12-10T01:16:04;36.63;;;14.90;;
41556;SDS011;27720;51.992;5.890;2022-12-10T01:18:32;33.13;;;13.85;;
41556;SDS011;27720;51.992;5.890;2022-12-10T01:21:05;38.10;;;16.00;;
41556;SDS011;27720;51.992;5.890;2022-12-10T01:23:34;34.35;;;14.77;;
41556;SDS011;27720;51.992;5.890;2022-12-10T01:26:02;35.10;;;14.70;;
41556;SDS011;27720;51.992;5.890;2022-12-10T01:28:30;37.65;;;14.63;;
41556;SDS011;27720;51.992;5.890;2022-12-10T01:31:01;32.92;;;14.43;;
41556;SDS011;27720;51.992;5.890;2022-12-10T01:33:30;38.55;;;16.42;;
41556;SDS011;27720;51.992;5.890;2022-12-10T01:36:08;46.03;;;17.15;;
41556;SDS011;27720;51.992;5.890;2022-12-10T01:38:38;32.42;;;12.75;;
41556;SDS011;27720;51.992;5.890;2022-12-10T01:41:05;38.50;;;13.57;;
41556;SDS011;27720;51.992;5.890;2022-12-10T01:46:22;37.60;;;14.38;;
41556;SDS011;27720;51.992;5.890;2022-12-10T01:48:50;37.22;;;15.65;;
41556;SDS011;27720;51.992;5.890;2022-12-10T01:51:16;37.08;;;15.32;;
41556;SDS011;27720;51.992;5.890;2022-12-10T01:53:43;33.85;;;13.13;;
41556;SDS011;27720;51.992;5.890;2022-12-10T01:56:10;34.75;;;14.07;;
41556;SDS011;27720;51.992;5.890;2022-12-10T01:58:37;26.65;;;13.77;;
41556;SDS011;27720;51.992;5.890;2022-12-10T02:01:08;40.92;;;16.92;;
41556;SDS011;27720;51.992;5.890;2022-12-10T02:03:41;35.58;;;16.23;;
41556;SDS011;27720;51.992;5.890;2022-12-10T02:06:20;31.75;;;14.82;;
41556;SDS011;27720;51.992;5.890;2022-12-10T02:11:46;36.28;;;14.32;;
41556;SDS011;27720;51.992;5.890;2022-12-10T02:14:23;39.90;;;16.67;;
41556;SDS011;27720;51.992;5.890;2022-12-10T02:16:57;38.47;;;14.05;;
41556;SDS011;27720;51.992;5.890;2022-12-10T02:22:05;39.50;;;15.18;;
41556;SDS011;27720;51.992;5.890;2022-12-10T02:24:33;41.45;;;15.27;;
41556;SDS011;27720;51.992;5.890;2022-12-10T02:29:37;31.85;;;15.07;;
41556;SDS011;27720;51.992;5.890;2022-12-10T02:32:05;38.22;;;16.73;;
41556;SDS011;27720;51.992;5.890;2022-12-10T02:34:50;36.88;;;14.60;;
41556;SDS011;27720;51.992;5.890;2022-12-10T02:37:24;35.63;;;14.73;;
41556;SDS011;27720;51.992;5.890;2022-12-10T02:39:58;32.58;;;15.18;;
41556;SDS011;27720;51.992;5.890;2022-12-10T02:42:31;31.48;;;13.63;;
41556;SDS011;27720;51.992;5.890;2022-12-10T02:45:00;33.15;;;15.60;;
41556;SDS011;27720;51.992;5.890;2022-12-10T02:47:27;34.95;;;15.93;;
41556;SDS011;27720;51.992;5.890;2022-12-10T02:49:53;36.22;;;15.27;;
41556;SDS011;27720;51.992;5.890;2022-12-10T02:52:24;37.45;;;15.20;;
41556;SDS011;27720;51.992;5.890;2022-12-10T02:54:52;41.03;;;14.95;;
41556;SDS011;27720;51.992;5.890;2022-12-10T03:00:06;33.53;;;15.70;;
41556;SDS011;27720;51.992;5.890;2022-12-10T03:11:32;31.27;;;14.23;;
41556;SDS011;27720;51.992;5.890;2022-12-10T03:14:19;34.13;;;15.48;;
41556;SDS011;27720;51.992;5.890;2022-12-10T03:16:53;37.03;;;14.10;;
41556;SDS011;27720;51.992;5.890;2022-12-10T03:19:30;32.22;;;14.43;;
41556;SDS011;27720;51.992;5.890;2022-12-10T03:24:32;31.38;;;13.98;;
41556;SDS011;27720;51.992;5.890;2022-12-10T03:27:00;36.00;;;15.48;;
41556;SDS011;27720;51.992;5.890;2022-12-10T03:29:30;33.95;;;14.43;;
41556;SDS011;27720;51.992;5.890;2022-12-10T03:32:10;40.60;;;14.77;;
41556;SDS011;27720;51.992;5.890;2022-12-10T03:34:36;33.28;;;14.98;;
41556;SDS011;27720;51.992;5.890;2022-12-10T03:37:03;39.38;;;15.20;;
41556;SDS011;27720;51.992;5.890;2022-12-10T03:39:30;26.45;;;12.88;;
41556;SDS011;27720;51.992;5.890;2022-12-10T03:41:57;36.65;;;14.70;;
41556;SDS011;27720;51.992;5.890;2022-12-10T03:44:26;40.05;;;15.65;;
41556;SDS011;27720;51.992;5.890;2022-12-10T03:46:56;29.27;;;14.15;;
41556;SDS011;27720;51.992;5.890;2022-12-10T03:49:23;36.58;;;14.32;;
41556;SDS011;27720;51.992;5.890;2022-12-10T03:51:49;38.67;;;15.25;;
41556;SDS011;27720;51.992;5.890;2022-12-10T03:54:15;39.90;;;15.85;;
41556;SDS011;27720;51.992;5.890;2022-12-10T03:56:41;37.72;;;14.98;;
41556;SDS011;27720;51.992;5.890;2022-12-10T03:59:07;35.05;;;14.88;;
41556;SDS011;27720;51.992;5.890;2022-12-10T04:01:33;34.08;;;15.82;;
41556;SDS011;27720;51.992;5.890;2022-12-10T04:03:59;42.75;;;16.95;;
41556;SDS011;27720;51.992;5.890;2022-12-10T04:06:24;34.83;;;14.98;;
41556;SDS011;27720;51.992;5.890;2022-12-10T04:08:51;35.33;;;15.15;;
41556;SDS011;27720;51.992;5.890;2022-12-10T04:11:18;33.55;;;15.52;;
41556;SDS011;27720;51.992;5.890;2022-12-10T04:13:44;33.72;;;15.13;;
41556;SDS011;27720;51.992;5.890;2022-12-10T04:16:29;38.75;;;15.65;;
41556;SDS011;27720;51.992;5.890;2022-12-10T04:19:06;37.30;;;14.95;;
41556;SDS011;27720;51.992;5.890;2022-12-10T04:21:35;33.63;;;14.43;;
41556;SDS011;27720;51.992;5.890;2022-12-10T04:24:21;37.70;;;15.10;;
41556;SDS011;27720;51.992;5.890;2022-12-10T04:27:12;31.33;;;13.93;;
41556;SDS011;27720;51.992;5.890;2022-12-10T04:29:43;43.83;;;16.48;;
41556;SDS011;27720;51.992;5.890;2022-12-10T04:32:09;35.08;;;14.73;;
41556;SDS011;27720;51.992;5.890;2022-12-10T04:34:35;33.20;;;13.93;;
41556;SDS011;27720;51.992;5.890;2022-12-10T04:37:01;38.55;;;17.17;;
41556;SDS011;27720;51.992;5.890;2022-12-10T04:39:28;43.03;;;16.00;;
41556;SDS011;27720;51.992;5.890;2022-12-10T04:41:53;40.15;;;16.23;;
41556;SDS011;27720;51.992;5.890;2022-12-10T04:44:19;51.30;;;17.85;;
41556;SDS011;27720;51.992;5.890;2022-12-10T04:46:45;46.80;;;17.60;;
41556;SDS011;27720;51.992;5.890;2022-12-10T04:49:17;39.58;;;16.10;;
41556;SDS011;27720;51.992;5.890;2022-12-10T04:51:43;49.25;;;18.50;;
41556;SDS011;27720;51.992;5.890;2022-12-10T04:54:09;55.15;;;18.63;;
41556;SDS011;27720;51.992;5.890;2022-12-10T04:56:35;48.83;;;19.95;;
41556;SDS011;27720;51.992;5.890;2022-12-10T04:59:02;41.90;;;17.13;;
41556;SDS011;27720;51.992;5.890;2022-12-10T05:01:29;49.15;;;18.55;;
41556;SDS011;27720;51.992;5.890;2022-12-10T05:03:59;53.47;;;21.58;;
41556;SDS011;27720;51.992;5.890;2022-12-10T05:06:27;41.67;;;17.52;;
41556;SDS011;27720;51.992;5.890;2022-12-10T05:08:53;42.75;;;17.77;;
41556;SDS011;27720;51.992;5.890;2022-12-10T05:11:19;48.67;;;18.85;;
41556;SDS011;27720;51.992;5.890;2022-12-10T05:13:46;38.30;;;17.38;;
41556;SDS011;27720;51.992;5.890;2022-12-10T05:16:14;54.60;;;18.80;;
41556;SDS011;27720;51.992;5.890;2022-12-10T05:18:41;52.20;;;22.00;;
41556;SDS011;27720;51.992;5.890;2022-12-10T05:21:09;56.72;;;21.85;;
41556;SDS011;27720;51.992;5.890;2022-12-10T05:23:38;49.42;;;19.85;;
41556;SDS011;27720;51.992;5.890;2022-12-10T05:28:37;53.25;;;21.45;;
41556;SDS011;27720;51.992;5.890;2022-12-10T05:31:15;47.92;;;21.13;;
41556;SDS011;27720;51.992;5.890;2022-12-10T05:33:44;39.85;;;18.95;;
41556;SDS011;27720;51.992;5.890;2022-12-10T05:36:10;47.28;;;19.42;;
41556;SDS011;27720;51.992;5.890;2022-12-10T05:38:38;62.28;;;23.90;;
41556;SDS011;27720;51.992;5.890;2022-12-10T05:41:12;45.45;;;20.15;;
41556;SDS011;27720;51.992;5.890;2022-12-10T05:43:48;58.58;;;19.75;;
41556;SDS011;27720;51.992;5.890;2022-12-10T05:46:19;63.00;;;21.45;;
41556;SDS011;27720;51.992;5.890;2022-12-10T05:48:47;47.10;;;18.98;;
41556;SDS011;27720;51.992;5.890;2022-12-10T05:51:15;48.20;;;18.48;;
41556;SDS011;27720;51.992;5.890;2022-12-10T05:53:46;51.25;;;19.88;;
41556;SDS011;27720;51.992;5.890;2022-12-10T05:56:13;56.80;;;21.67;;
41556;SDS011;27720;51.992;5.890;2022-12-10T05:58:42;61.33;;;22.27;;
41556;SDS011;27720;51.992;5.890;2022-12-10T06:01:13;50.90;;;20.17;;
41556;SDS011;27720;51.992;5.890;2022-12-10T06:03:41;53.95;;;19.35;;
41556;SDS011;27720;51.992;5.890;2022-12-10T06:06:07;56.70;;;21.33;;
41556;SDS011;27720;51.992;5.890;2022-12-10T06:08:34;65.47;;;22.38;;
41556;SDS011;27720;51.992;5.890;2022-12-10T06:11:07;54.20;;;19.42;;
41556;SDS011;27720;51.992;5.890;2022-12-10T06:13:35;43.53;;;17.85;;
41556;SDS011;27720;51.992;5.890;2022-12-10T06:16:05;49.08;;;18.77;;
41556;SDS011;27720;51.992;5.890;2022-12-10T06:18:32;52.22;;;19.30;;
41556;SDS011;27720;51.992;5.890;2022-12-10T06:20:58;64.35;;;22.98;;
41556;SDS011;27720;51.992;5.890;2022-12-10T06:23:27;94.45;;;22.55;;
41556;SDS011;27720;51.992;5.890;2022-12-10T06:25:53;61.33;;;22.27;;
41556;SDS011;27720;51.992;5.890;2022-12-10T06:28:18;57.25;;;22.13;;
41556;SDS011;27720;51.992;5.890;2022-12-10T06:30:44;68.43;;;22.20;;
41556;SDS011;27720;51.992;5.890;2022-12-10T06:33:10;47.17;;;19.83;;
41556;SDS011;27720;51.992;5.890;2022-12-10T06:35:36;66.43;;;24.50;;
41556;SDS011;27720;51.992;5.890;2022-12-10T06:38:02;66.30;;;23.00;;
41556;SDS011;27720;51.992;5.890;2022-12-10T06:40:28;62.65;;;23.65;;
41556;SDS011;27720;51.992;5.890;2022-12-10T06:42:54;53.33;;;20.52;;
41556;SDS011;27720;51.992;5.890;2022-12-10T06:45:20;57.40;;;21.63;;
41556;SDS011;27720;51.992;5.890;2022-12-10T06:47:45;49.95;;;19.52;;
41556;SDS011;27720;51.992;5.890;2022-12-10T06:50:11;62.13;;;24.20;;
41556;SDS011;27720;51.992;5.890;2022-12-10T06:52:38;66.82;;;21.88;;
41556;SDS011;27720;51.992;5.890;2022-12-10T06:55:04;53.28;;;19.30;;
41556;SDS011;27720;51.992;5.890;2022-12-10T06:57:30;61.90;;;23.77;;
41556;SDS011;27720;51.992;5.890;2022-12-10T06:59:56;59.33;;;22.63;;
41556;SDS011;27720;51.992;5.890;2022-12-10T07:02:24;56.35;;;23.33;;
41556;SDS011;27720;51.992;5.890;2022-12-10T07:04:50;63.22;;;22.63;;
41556;SDS011;27720;51.992;5.890;2022-12-10T07:07:16;55.40;;;20.88;;
41556;SDS011;27720;51.992;5.890;2022-12-10T07:09:42;56.83;;;20.38;;
41556;SDS011;27720;51.992;5.890;2022-12-10T07:12:08;47.10;;;18.10;;
41556;SDS011;27720;51.992;5.890;2022-12-10T07:14:33;65.65;;;24.25;;
41556;SDS011;27720;51.992;5.890;2022-12-10T07:16:59;57.50;;;18.08;;
41556;SDS011;27720;51.992;5.890;2022-12-10T07:19:27;49.10;;;17.45;;
41556;SDS011;27720;51.992;5.890;2022-12-10T07:21:56;49.05;;;18.42;;
41556;SDS011;27720;51.992;5.890;2022-12-10T07:24:22;54.75;;;18.40;;
41556;SDS011;27720;51.992;5.890;2022-12-10T07:26:47;58.88;;;19.65;;
41556;SDS011;27720;51.992;5.890;2022-12-10T07:29:15;55.55;;;19.33;;
41556;SDS011;27720;51.992;5.890;2022-12-10T07:31:42;43.20;;;17.10;;
41556;SDS011;27720;51.992;5.890;2022-12-10T07:34:10;60.97;;;20.33;;
41556;SDS011;27720;51.992;5.890;2022-12-10T07:36:37;66.15;;;24.08;;
41556;SDS011;27720;51.992;5.890;2022-12-10T07:39:06;50.85;;;18.98;;
41556;SDS011;27720;51.992;5.890;2022-12-10T07:41:34;53.80;;;19.45;;
41556;SDS011;27720;51.992;5.890;2022-12-10T07:44:01;54.22;;;20.00;;
41556;SDS011;27720;51.992;5.890;2022-12-10T07:46:30;60.95;;;18.40;;
41556;SDS011;27720;51.992;5.890;2022-12-10T07:48:58;47.70;;;17.48;;
41556;SDS011;27720;51.992;5.890;2022-12-10T07:51:26;48.58;;;18.80;;
41556;SDS011;27720;51.992;5.890;2022-12-10T07:53:52;48.75;;;18.08;;
41556;SDS011;27720;51.992;5.890;2022-12-10T07:56:18;48.25;;;15.73;;
41556;SDS011;27720;51.992;5.890;2022-12-10T07:58:46;47.58;;;15.70;;
41556;SDS011;27720;51.992;5.890;2022-12-10T08:01:13;45.67;;;16.60;;
41556;SDS011;27720;51.992;5.890;2022-12-10T08:03:41;44.90;;;17.08;;
41556;SDS011;27720;51.992;5.890;2022-12-10T08:06:08;65.43;;;20.48;;
41556;SDS011;27720;51.992;5.890;2022-12-10T08:08:40;48.60;;;16.88;;
41556;SDS011;27720;51.992;5.890;2022-12-10T08:11:07;38.23;;;15.17;;
41556;SDS011;27720;51.992;5.890;2022-12-10T08:13:33;57.38;;;17.52;;
41556;SDS011;27720;51.992;5.890;2022-12-10T08:16:01;53.05;;;17.80;;
41556;SDS011;27720;51.992;5.890;2022-12-10T08:18:32;57.28;;;19.98;;
41556;SDS011;27720;51.992;5.890;2022-12-10T08:20:58;44.85;;;18.35;;
41556;SDS011;27720;51.992;5.890;2022-12-10T08:23:28;48.27;;;17.50;;
41556;SDS011;27720;51.992;5.890;2022-12-10T08:25:54;59.50;;;19.23;;
41556;SDS011;27720;51.992;5.890;2022-12-10T08:28:20;56.20;;;19.27;;
41556;SDS011;27720;51.992;5.890;2022-12-10T08:30:46;58.60;;;18.15;;
41556;SDS011;27720;51.992;5.890;2022-12-10T08:33:12;56.47;;;17.20;;
41556;SDS011;27720;51.992;5.890;2022-12-10T08:35:38;74.95;;;20.98;;
41556;SDS011;27720;51.992;5.890;2022-12-10T08:38:04;59.05;;;18.98;;
41556;SDS011;27720;51.992;5.890;2022-12-10T08:40:30;47.90;;;17.60;;
41556;SDS011;27720;51.992;5.890;2022-12-10T08:42:56;47.05;;;17.13;;
41556;SDS011;27720;51.992;5.890;2022-12-10T08:45:22;66.00;;;21.67;;
41556;SDS011;27720;51.992;5.890;2022-12-10T08:47:48;68.15;;;21.60;;
41556;SDS011;27720;51.992;5.890;2022-12-10T08:50:16;59.42;;;18.88;;
41556;SDS011;27720;51.992;5.890;2022-12-10T08:52:42;52.28;;;17.60;;
41556;SDS011;27720;51.992;5.890;2022-12-10T08:55:08;65.18;;;21.05;;
41556;SDS011;27720;51.992;5.890;2022-12-10T08:57:36;57.67;;;18.95;;
41556;SDS011;27720;51.992;5.890;2022-12-10T09:00:03;67.00;;;19.92;;
41556;SDS011;27720;51.992;5.890;2022-12-10T09:02:29;45.67;;;17.40;;
41556;SDS011;27720;51.992;5.890;2022-12-10T09:04:55;52.63;;;18.25;;
41556;SDS011;27720;51.992;5.890;2022-12-10T09:07:20;50.22;;;20.35;;
41556;SDS011;27720;51.992;5.890;2022-12-10T09:09:47;49.55;;;16.95;;
41556;SDS011;27720;51.992;5.890;2022-12-10T09:12:12;56.58;;;20.23;;
41556;SDS011;27720;51.992;5.890;2022-12-10T09:14:38;52.97;;;17.42;;
41556;SDS011;27720;51.992;5.890;2022-12-10T09:17:05;56.20;;;18.13;;
41556;SDS011;27720;51.992;5.890;2022-12-10T09:19:31;52.78;;;15.88;;
41556;SDS011;27720;51.992;5.890;2022-12-10T09:21:57;58.22;;;18.40;;
41556;SDS011;27720;51.992;5.890;2022-12-10T09:24:23;48.55;;;16.65;;
41556;SDS011;27720;51.992;5.890;2022-12-10T09:26:49;51.63;;;16.92;;
41556;SDS011;27720;51.992;5.890;2022-12-10T09:29:15;42.13;;;15.65;;
41556;SDS011;27720;51.992;5.890;2022-12-10T09:31:40;38.33;;;15.15;;
41556;SDS011;27720;51.992;5.890;2022-12-10T09:34:07;52.13;;;19.55;;
41556;SDS011;27720;51.992;5.890;2022-12-10T09:36:32;41.50;;;13.80;;
41556;SDS011;27720;51.992;5.890;2022-12-10T09:38:58;49.13;;;14.20;;
41556;SDS011;27720;51.992;5.890;2022-12-10T09:44:08;41.28;;;14.23;;
41556;SDS011;27720;51.992;5.890;2022-12-10T09:46:59;58.40;;;16.85;;
41556;SDS011;27720;51.992;5.890;2022-12-10T09:49:53;45.78;;;16.25;;
41556;SDS011;27720;51.992;5.890;2022-12-10T09:52:21;37.67;;;13.75;;
41556;SDS011;27720;51.992;5.890;2022-12-10T09:54:50;40.28;;;13.98;;
41556;SDS011;27720;51.992;5.890;2022-12-10T09:57:30;38.75;;;14.43;;
41556;SDS011;27720;51.992;5.890;2022-12-10T10:00:00;33.30;;;13.15;;
41556;SDS011;27720;51.992;5.890;2022-12-10T10:02:36;53.65;;;16.73;;
41556;SDS011;27720;51.992;5.890;2022-12-10T10:07:34;45.58;;;16.48;;
41556;SDS011;27720;51.992;5.890;2022-12-10T10:10:07;39.05;;;15.52;;
41556;SDS011;27720;51.992;5.890;2022-12-10T10:12:49;41.08;;;15.20;;
41556;SDS011;27720;51.992;5.890;2022-12-10T10:15:19;46.25;;;17.85;;
41556;SDS011;27720;51.992;5.890;2022-12-10T10:17:55;51.88;;;14.32;;
41556;SDS011;27720;51.992;5.890;2022-12-10T10:20:23;39.17;;;14.98;;
41556;SDS011;27720;51.992;5.890;2022-12-10T10:22:50;51.08;;;17.80;;
41556;SDS011;27720;51.992;5.890;2022-12-10T10:25:17;40.35;;;13.50;;
41556;SDS011;27720;51.992;5.890;2022-12-10T10:27:47;48.50;;;13.55;;
41556;SDS011;27720;51.992;5.890;2022-12-10T10:30:14;48.60;;;14.48;;
41556;SDS011;27720;51.992;5.890;2022-12-10T10:32:44;51.63;;;16.23;;
41556;SDS011;27720;51.992;5.890;2022-12-10T10:36:14;40.55;;;16.05;;
41556;SDS011;27720;51.992;5.890;2022-12-10T10:38:22;50.80;;;16.70;;
41556;SDS011;27720;51.992;5.890;2022-12-10T10:40:53;38.22;;;14.90;;
41556;SDS011;27720;51.992;5.890;2022-12-10T10:43:27;44.50;;;14.65;;
41556;SDS011;27720;51.992;5.890;2022-12-10T10:45:59;42.35;;;13.77;;
41556;SDS011;27720;51.992;5.890;2022-12-10T10:48:32;53.70;;;16.05;;
41556;SDS011;27720;51.992;5.890;2022-12-10T10:51:06;36.85;;;13.35;;
41556;SDS011;27720;51.992;5.890;2022-12-10T11:01:44;59.40;;;17.48;;
41556;SDS011;27720;51.992;5.890;2022-12-10T11:04:13;39.33;;;13.52;;
41556;SDS011;27720;51.992;5.890;2022-12-10T11:06:40;42.45;;;15.25;;
41556;SDS011;27720;51.992;5.890;2022-12-10T11:09:07;46.72;;;13.93;;
41556;SDS011;27720;51.992;5.890;2022-12-10T11:11:40;54.42;;;15.10;;
41556;SDS011;27720;51.992;5.890;2022-12-10T11:14:39;39.15;;;14.27;;
41556;SDS011;27720;51.992;5.890;2022-12-10T11:19:35;43.85;;;14.65;;
41556;SDS011;27720;51.992;5.890;2022-12-10T11:22:44;52.17;;;15.82;;
41556;SDS011;27720;51.992;5.890;2022-12-10T11:25:02;46.63;;;16.20;;
41556;SDS011;27720;51.992;5.890;2022-12-10T11:27:39;69.47;;;17.55;;
41556;SDS011;27720;51.992;5.890;2022-12-10T11:30:17;41.60;;;14.60;;
41556;SDS011;27720;51.992;5.890;2022-12-10T11:36:15;44.35;;;16.08;;
41556;SDS011;27720;51.992;5.890;2022-12-10T11:41:44;39.83;;;12.40;;
41556;SDS011;27720;51.992;5.890;2022-12-10T11:47:08;38.97;;;13.50;;
41556;SDS011;27720;51.992;5.890;2022-12-10T12:00:17;34.60;;;13.95;;
41556;SDS011;27720;51.992;5.890;2022-12-10T12:08:23;28.13;;;10.32;;
41556;SDS011;27720;51.992;5.890;2022-12-10T12:19:33;36.70;;;11.93;;
41556;SDS011;27720;51.992;5.890;2022-12-10T12:22:39;40.35;;;12.93;;
41556;SDS011;27720;51.992;5.890;2022-12-10T12:25:06;39.60;;;15.15;;
41556;SDS011;27720;51.992;5.890;2022-12-10T12:27:49;35.67;;;12.43;;
41556;SDS011;27720;51.992;5.890;2022-12-10T12:30:19;42.95;;;13.15;;
41556;SDS011;27720;51.992;5.890;2022-12-10T12:32:52;36.97;;;12.63;;
41556;SDS011;27720;51.992;5.890;2022-12-10T12:35:25;46.22;;;12.75;;
41556;SDS011;27720;51.992;5.890;2022-12-10T12:37:59;43.75;;;14.68;;
41556;SDS011;27720;51.992;5.890;2022-12-10T12:40:43;34.58;;;12.13;;
41556;SDS011;27720;51.992;5.890;2022-12-10T12:43:17;54.97;;;14.20;;
41556;SDS011;27720;51.992;5.890;2022-12-10T12:45:48;41.25;;;12.95;;
41556;SDS011;27720;51.992;5.890;2022-12-10T12:48:26;43.92;;;13.07;;
41556;SDS011;27720;51.992;5.890;2022-12-10T12:51:19;36.65;;;12.90;;
41556;SDS011;27720;51.992;5.890;2022-12-10T12:53:53;33.45;;;13.23;;
41556;SDS011;27720;51.992;5.890;2022-12-10T13:01:56;42.40;;;13.57;;
41556;SDS011;27720;51.992;5.890;2022-12-10T13:04:39;42.50;;;13.55;;
41556;SDS011;27720;51.992;5.890;2022-12-10T13:07:47;42.40;;;12.63;;
41556;SDS011;27720;51.992;5.890;2022-12-10T13:10:09;39.20;;;12.95;;
41556;SDS011;27720;51.992;5.890;2022-12-10T13:13:34;43.63;;;12.43;;
41556;SDS011;27720;51.992;5.890;2022-12-10T13:15:52;41.33;;;12.75;;
41556;SDS011;27720;51.992;5.890;2022-12-10T13:18:19;47.42;;;14.45;;
41556;SDS011;27720;51.992;5.890;2022-12-10T13:23:53;41.13;;;13.65;;
41556;SDS011;27720;51.992;5.890;2022-12-10T13:26:30;33.60;;;13.38;;
41556;SDS011;27720;51.992;5.890;2022-12-10T13:29:22;45.72;;;13.73;;
41556;SDS011;27720;51.992;5.890;2022-12-10T13:32:01;37.03;;;13.43;;
41556;SDS011;27720;51.992;5.890;2022-12-10T13:34:31;45.95;;;12.20;;
41556;SDS011;27720;51.992;5.890;2022-12-10T13:39:32;29.20;;;10.15;;
41556;SDS011;27720;51.992;5.890;2022-12-10T13:47:42;36.65;;;11.13;;
41556;SDS011;27720;51.992;5.890;2022-12-10T13:53:19;28.60;;;10.65;;
41556;SDS011;27720;51.992;5.890;2022-12-10T14:01:16;40.42;;;15.95;;
41556;SDS011;27720;51.992;5.890;2022-12-10T14:06:39;43.70;;;14.30;;
41556;SDS011;27720;51.992;5.890;2022-12-10T14:09:11;39.60;;;14.50;;
41556;SDS011;27720;51.992;5.890;2022-12-10T14:11:45;54.25;;;13.25;;
41556;SDS011;27720;51.992;5.890;2022-12-10T14:14:34;34.45;;;13.60;;
41556;SDS011;27720;51.992;5.890;2022-12-10T14:17:06;27.05;;;10.70;;
41556;SDS011;27720;51.992;5.890;2022-12-10T14:19:40;35.85;;;10.85;;
41556;SDS011;27720;51.992;5.890;2022-12-10T14:22:08;33.03;;;11.95;;
41556;SDS011;27720;51.992;5.890;2022-12-10T14:24:46;38.25;;;9.90;;
41556;SDS011;27720;51.992;5.890;2022-12-10T14:27:19;33.67;;;9.43;;
41556;SDS011;27720;51.992;5.890;2022-12-10T14:29:51;60.25;;;13.50;;
41556;SDS011;27720;51.992;5.890;2022-12-10T14:32:41;36.20;;;11.98;;
41556;SDS011;27720;51.992;5.890;2022-12-10T14:35:08;31.85;;;11.52;;
41556;SDS011;27720;51.992;5.890;2022-12-10T14:37:39;31.77;;;11.20;;
41556;SDS011;27720;51.992;5.890;2022-12-10T14:40:08;33.97;;;11.75;;
41556;SDS011;27720;51.992;5.890;2022-12-10T14:42:43;26.35;;;9.88;;
41556;SDS011;27720;51.992;5.890;2022-12-10T14:45:11;31.17;;;11.20;;
41556;SDS011;27720;51.992;5.890;2022-12-10T14:47:40;32.08;;;9.35;;
41556;SDS011;27720;51.992;5.890;2022-12-10T14:50:09;41.65;;;12.30;;
41556;SDS011;27720;51.992;5.890;2022-12-10T14:52:40;32.55;;;11.52;;
41556;SDS011;27720;51.992;5.890;2022-12-10T14:55:11;23.00;;;9.65;;
41556;SDS011;27720;51.992;5.890;2022-12-10T14:57:43;23.95;;;9.50;;
41556;SDS011;27720;51.992;5.890;2022-12-10T15:00:15;25.98;;;10.07;;
41556;SDS011;27720;51.992;5.890;2022-12-10T15:02:44;27.58;;;9.20;;
41556;SDS011;27720;51.992;5.890;2022-12-10T15:05:17;23.23;;;8.50;;
41556;SDS011;27720;51.992;5.890;2022-12-10T15:07:50;25.13;;;9.20;;
41556;SDS011;27720;51.992;5.890;2022-12-10T15:10:24;24.77;;;8.88;;
41556;SDS011;27720;51.992;5.890;2022-12-10T15:12:52;32.67;;;11.40;;
41556;SDS011;27720;51.992;5.890;2022-12-10T15:15:21;22.17;;;9.70;;
41556;SDS011;27720;51.992;5.890;2022-12-10T15:20:53;30.88;;;10.40;;
41556;SDS011;27720;51.992;5.890;2022-12-10T15:28:30;37.08;;;10.85;;
41556;SDS011;27720;51.992;5.890;2022-12-10T15:33:45;28.15;;;9.68;;
41556;SDS011;27720;51.992;5.890;2022-12-10T15:36:19;28.83;;;11.80;;
41556;SDS011;27720;51.992;5.890;2022-12-10T15:39:16;29.80;;;11.20;;
41556;SDS011;27720;51.992;5.890;2022-12-10T15:41:49;32.30;;;9.95;;
41556;SDS011;27720;51.992;5.890;2022-12-10T15:47:01;31.95;;;10.85;;
41556;SDS011;27720;51.992;5.890;2022-12-10T15:49:40;26.45;;;9.70;;
41556;SDS011;27720;51.992;5.890;2022-12-10T15:52:08;28.20;;;10.93;;
41556;SDS011;27720;51.992;5.890;2022-12-10T15:54:44;27.38;;;8.93;;
41556;SDS011;27720;51.992;5.890;2022-12-10T15:57:26;21.95;;;8.35;;
41556;SDS011;27720;51.992;5.890;2022-12-10T16:00:04;33.95;;;10.48;;
41556;SDS011;27720;51.992;5.890;2022-12-10T16:07:46;31.17;;;12.25;;
41556;SDS011;27720;51.992;5.890;2022-12-10T16:10:13;27.13;;;11.65;;
41556;SDS011;27720;51.992;5.890;2022-12-10T16:12:41;27.02;;;10.05;;
41556;SDS011;27720;51.992;5.890;2022-12-10T16:15:10;26.70;;;10.30;;
41556;SDS011;27720;51.992;5.890;2022-12-10T16:17:41;35.70;;;10.48;;
41556;SDS011;27720;51.992;5.890;2022-12-10T16:21:01;33.72;;;9.50;;
41556;SDS011;27720;51.992;5.890;2022-12-10T16:23:28;30.08;;;10.27;;
41556;SDS011;27720;51.992;5.890;2022-12-10T16:25:54;23.38;;;8.95;;
41556;SDS011;27720;51.992;5.890;2022-12-10T16:28:21;29.65;;;10.15;;
41556;SDS011;27720;51.992;5.890;2022-12-10T16:33:17;25.60;;;9.15;;
41556;SDS011;27720;51.992;5.890;2022-12-10T16:35:45;25.08;;;9.88;;
41556;SDS011;27720;51.992;5.890;2022-12-10T16:38:11;31.40;;;11.38;;
41556;SDS011;27720;51.992;5.890;2022-12-10T16:40:38;27.98;;;9.57;;
41556;SDS011;27720;51.992;5.890;2022-12-10T16:43:05;25.23;;;10.75;;
41556;SDS011;27720;51.992;5.890;2022-12-10T16:45:37;23.42;;;8.27;;
41556;SDS011;27720;51.992;5.890;2022-12-10T16:48:06;25.23;;;8.80;;
41556;SDS011;27720;51.992;5.890;2022-12-10T16:50:33;33.70;;;10.38;;